Search for airport 
image banner adimage banner adimage banner ad
image banner ad

KOAK - Metropolitan Oakland Intl

Located in Oakland, United States

ICAO - OAK, IATA - OAK

Data provided by Airmate  

General information

Coordinates: N37°43'17" W122°13'16"
Elevation is 9 feet MSL.
Magnetic variation is 14° East
View others Airports in California

Operational data

Special qualification required
Current time UTC:
Current local time:
Weather
METAR: KOAK 291553Z 30007KT 10SM FEW006 SCT009 BKN160 BKN200 18/14 A2998 RMK AO2 SLP150 T01780139
TAF: KOAK 291122Z 2912/3018 31005KT P6SM BKN006 FM291600 28005KT P6SM SCT007 FM292100 31014KT P6SM SKC FM300500 32006KT P6SM FEW008 FM300900 31005KT P6SM FEW005 SCT009 FM301700 30008KT P6SM SKC
View NOTAMs / SUP AIP / TFR affecting this airport [VIEW]
Communications frequencies: [VIEW]

Runways:

RWY identifierQFULength (ft)Width (ft)SurfaceLDA (ft)
15164°337675ASPH
33344°337675ASPH
10L112°5458150ASPH5336
10R112°6213150ASPH6213
12130°10520150ASPH10000
28L292°6213150ASPH6213
28R292°5458150ASPH5458
30310°10520150ASPH10000

Airport contact information

Address: Oakland United States

Other aviation service providers

Flight schools

Oakland Flyers, Llc

Oakland Flyers, Llc
info@oaklandflyers.com+1(510)568-3317

Satellite view of KOAK